Date,TemperatureHighF,TemperatureAvgF,TemperatureLowF,DewpointHighF,DewpointAvgF,DewpointLowF,HumidityHigh,HumidityAvg,HumidityLow,PressureMaxIn,PressureMinIn,WindSpeedMaxMPH,WindSpeedAvgMPH,GustSpeedMaxMPH,PrecipitationSumIn
2014-1-1,80,76,73,72,69,61,85,77,67,30.30,30.13,18,6,19,0.00
2014-1-2,85,77,69,72,67,62,93,73,47,30.13,29.95,19,4,21,0.00
2014-1-3,73,65,58,70,55,46,92,70,58,30.28,29.97,17,5,20,0.00
2014-1-4,75,71,66,68,62,53,86,73,62,30.27,30.15,19,6,19,0.00
2014-1-5,83,74,69,72,69,67,95,85,63,30.16,30.04,19,2,19,0.10
2014-1-6,82,72,56,71,63,35,96,76,37,30.28,30.04,19,4,24,0.00
2014-1-7,57,53,48,51,43,30,88,72,43,30.40,30.28,19,5,20,0.00
2014-1-8,71,64,52,64,60,48,96,86,78,30.41,30.31,24,7,24,0.00
2014-1-9,76,72,68,72,69,64,96,88,80,30.33,30.21,24,9,28,0.00
2014-1-10,80,75,67,72,70,65,96,85,71,30.28,30.15,22,4,26,0.00
2014-1-11,83,78,72,73,71,68,91,80,67,30.21,30.05,21,5,21,0.00
2014-1-12,76,70,62,70,62,57,93,76,56,30.26,30.09,13,3,14,0.00
2014-1-13,81,75,69,70,66,60,84,74,61,30.24,30.12,12,4,15,0.00
2014-1-14,81,75,69,71,67,64,95,79,60,30.12,30.01,17,3,17,0.00
2014-1-15,70,65,58,65,58,50,95,80,55,30.13,30.01,15,4,15,0.00
2014-1-16,59,55,47,54,39,27,87,57,31,30.24,30.03,21,4,22,0.00
2014-1-17,66,55,43,45,38,32,78,54,37,30.29,30.18,10,2,10,0.00
2014-1-18,66,56,48,49,40,33,85,57,32,30.32,30.22,13,2,14,0.00
2014-1-19,68,55,38,48,38,27,82,55,22,30.36,30.23,14,2,18,0.00
2014-1-20,75,64,54,58,52,46,92,69,39,30.28,30.12,15,2,16,0.00
2014-1-21,73,65,60,62,58,56,93,79,57,30.15,29.95,18,5,21,0.00
2014-1-22,62,55,47,60,39,29,94,57,33,30.27,29.97,20,5,22,0.00
2014-1-23,68,56,43,55,46,34,81,69,60,30.39,30.25,12,2,14,0.00
2014-1-24,68,61,55,54,52,51,85,74,58,30.46,30.31,16,3,21,0.00
2014-1-25,74,64,52,61,55,49,92,75,53,30.32,30.13,9,2,10,0.00
2014-1-26,77,67,55,62,57,52,95,73,43,30.19,30.07,8,2,10,0.80
2014-1-27,83,71,60,68,62,58,94,75,45,30.12,30.02,14,2,15,0.00
2014-1-28,81,71,61,69,64,59,95,80,56,30.17,30.05,14,2,14,0.00
2014-1-29,75,67,63,71,65,62,96,92,82,30.17,30.07,12,2,13,0.00
2014-1-30,68,65,64,67,64,63,97,96,93,30.20,30.11,12,1,14,0.00
2014-1-31,82,75,66,73,71,65,97,88,69,30.18,30.09,16,3,16,0.00
2014-2-1,82,77,73,73,70,68,93,82,65,30.23,30.14,16,3,17,0.00
2014-2-2,82,77,73,70,69,67,90,76,63,30.24,30.15,15,4,15,0.00
2014-2-3,82,77,74,72,70,68,88,79,68,30.20,30.11,15,4,15,0.00
2014-2-4,82,78,74,72,70,67,90,77,65,30.23,30.13,16,5,17,0.00
2014-2-5,83,76,71,73,70,68,94,84,66,30.18,30.08,16,3,16,0.00
2014-2-6,80,74,71,73,71,69,95,89,74,30.20,30.11,10,1,12,0.00
2014-2-7,81,72,65,70,67,63,95,85,63,30.23,30.14,10,2,11,0.00
2014-2-8,83,73,68,75,68,65,96,87,64,30.19,30.08,10,1,11,0.00
2014-2-9,77,69,65,66,64,60,96,83,67,30.18,30.08,12,2,14,0.00
2014-2-10,78,70,63,67,62,61,93,76,58,30.18,30.09,13,2,14,0.00
2014-2-11,81,75,69,68,66,63,82,73,59,30.16,30.06,13,4,15,0.00
2014-2-12,82,72,63,69,65,60,96,79,56,30.12,29.90,18,4,26,0.00
2014-2-13,67,65,64,65,64,0,96,95,77,29.93,29.83,13,4,13,0.00
2014-2-24,84,78,74,70,68,62,84,71,49,30.13,30.03,8,1,10,0.10
2014-2-25,84,75,69,71,68,62,95,80,51,30.12,30.00,11,2,13,0.00
2014-2-26,85,74,66,70,64,57,96,74,39,30.05,29.83,20,4,20,0.00
2014-2-27,78,71,64,69,64,59,90,78,54,30.03,29.84,16,4,16,0.10
2014-2-28,72,65,60,62,57,49,96,79,48,30.18,29.97,13,2,15,1.20
2014-3-1,78,69,58,64,58,54,93,71,46,30.25,30.14,14,3,15,0.00
2014-3-2,79,74,69,62,60,56,71,62,48,30.28,30.16,15,3,15,0.00
2014-3-3,82,73,63,65,61,58,89,67,46,30.17,30.06,14,2,18,0.00
2014-3-4,79,72,63,66,63,59,92,74,56,30.16,30.05,13,3,13,0.00
2014-3-5,82,74,66,69,66,63,92,78,54,30.13,30.00,18,3,20,0.40
2014-3-6,82,72,66,73,68,64,96,88,64,30.09,29.84,16,3,19,0.40
2014-3-7,77,70,60,67,60,50,94,73,41,30.11,29.87,21,6,28,0.10
2014-3-8,73,62,53,61,54,47,89,76,50,30.23,30.11,14,3,14,0.10
2014-3-9,77,70,62,67,61,58,96,77,55,30.26,30.17,13,3,14,0.00
2014-3-10,82,72,64,63,61,58,89,70,45,30.20,30.05,13,3,14,0.00
2014-3-11,80,72,61,66,62,58,89,72,53,30.12,29.95,16,4,21,0.00
2014-3-12,85,76,69,70,66,62,88,72,48,29.99,29.83,24,5,24,0.30
2014-3-13,74,73,71,68,67,63,84,81,77,29.95,29.93,15,6,24,0.00
2014-3-22,80,77,73,72,69,66,91,78,67,30.18,30.05,18,5,20,0.70
2014-3-23,87,76,67,71,66,61,93,72,43,30.15,30.02,14,2,20,0.10
2014-3-24,75,71,65,70,66,60,96,86,62,30.13,30.00,16,2,16,0.30
2014-3-25,79,70,64,69,64,54,96,82,62,30.11,29.92,21,6,21,0.40
2014-3-26,67,61,54,54,48,39,81,63,51,30.36,30.11,18,4,21,0.10
2014-3-27,76,70,59,62,56,50,82,63,48,30.40,30.28,20,7,23,0.10
2014-3-28,81,76,72,69,63,57,79,66,55,30.31,30.14,20,7,25,0.00
2014-3-29,82,76,69,73,70,63,94,81,69,30.19,30.00,27,5,31,0.00
2014-3-30,79,71,63,66,54,30,92,60,18,30.17,29.99,15,4,31,0.00
2014-3-31,77,68,58,63,57,49,83,69,50,30.24,30.15,13,3,18,0.00
2014-4-1,78,70,60,64,59,57,95,70,49,30.27,30.19,13,3,16,0.00
2014-4-2,79,72,64,61,58,55,81,62,46,30.29,30.21,13,4,15,0.00
2014-4-3,80,75,71,64,62,59,72,63,52,30.26,30.15,15,4,16,0.00
2014-4-4,74,74,73,63,63,62,70,69,68,30.18,30.13,8,3,8,0.00
2014-4-7,86,82,78,74,71,68,88,71,56,30.06,29.95,20,6,21,0.00
2014-4-8,90,78,67,75,69,61,91,77,48,30.02,29.82,29,7,29,0.80
2014-4-9,68,68,67,64,63,61,88,83,80,29.99,29.96,15,8,29,0.00
2014-4-10,73,72,71,58,54,50,62,54,47,30.34,30.29,11,4,12,0.00
2014-4-11,78,74,71,68,64,58,88,72,62,30.33,30.21,16,5,18,1.10
2014-4-12,80,75,70,66,63,60,78,67,52,30.28,30.17,18,6,19,0.00
2014-4-13,80,76,73,71,68,64,85,76,66,30.19,30.09,20,9,22,0.00
2014-4-14,85,79,75,72,71,68,87,76,57,30.10,29.98,15,5,22,0.00
2014-4-15,86,78,73,74,71,69,92,80,58,30.02,29.91,17,4,22,3.30
2014-4-16,78,74,69,72,68,64,92,83,70,30.17,30.00,19,5,22,0.70
2014-4-17,82,77,74,72,70,66,90,80,64,30.23,30.13,22,8,23,0.90
2014-4-18,84,79,73,73,70,66,93,76,60,30.19,30.03,17,6,23,0.30
2014-4-19,88,78,68,74,68,59,93,73,48,30.06,29.95,19,6,20,0.20
2014-4-20,77,70,65,64,60,56,81,72,57,30.14,30.03,15,4,20,0.00
2014-4-21,79,70,61,65,62,59,92,77,54,30.14,30.01,14,4,17,0.00
2014-4-22,82,74,66,68,65,61,91,74,56,30.06,29.93,10,2,17,0.00
2014-4-23,84,75,67,68,64,61,85,70,48,30.04,29.96,12,3,12,0.00
2014-4-24,85,77,68,69,66,61,85,69,46,30.11,30.01,15,3,15,0.00
2014-4-25,90,79,69,72,66,57,88,68,33,30.12,29.99,16,3,19,0.00
2014-4-26,84,78,71,72,68,62,89,73,50,30.10,30.01,16,3,17,0.00
2014-4-27,88,81,73,72,68,61,88,66,43,30.12,24.32,14,4,15,14.00
2014-4-28,87,81,78,73,70,65,80,69,52,30.08,30.00,14,5,16,0.00
2014-4-29,87,82,78,76,73,70,86,76,62,30.12,29.97,18,5,21,0.00
2014-4-30,88,82,79,75,73,68,87,75,55,30.16,30.05,17,5,21,24.30
2014-5-1,88,81,75,75,72,67,85,73,54,30.14,30.03,18,5,20,0.10
2014-5-2,88,81,76,73,70,65,84,71,50,30.08,29.95,18,5,20,0.00
2014-5-3,76,75,75,71,71,70,88,86,82,30.06,30.02,4,0,5,0.00
2014-5-8,84,81,79,70,69,68,75,68,58,30.26,30.22,16,7,18,0.00
2014-5-9,86,81,77,70,67,65,74,65,53,30.28,30.18,17,7,21,0.00
2014-5-10,84,80,77,70,68,66,74,68,60,30.25,30.15,17,7,21,0.00
2014-5-11,85,80,78,70,68,63,76,65,52,30.24,30.15,15,6,20,0.00
2014-5-12,85,80,78,71,69,66,75,68,57,30.22,30.14,21,8,22,0.00
2014-5-13,85,80,76,76,72,67,91,76,64,30.16,30.08,21,8,22,1.40
2014-5-14,86,81,73,74,72,68,92,75,60,30.15,30.05,19,7,23,0.70
2014-5-15,84,77,72,76,73,70,95,88,71,30.13,30.00,16,3,23,0.50
2014-5-16,77,73,69,73,65,51,94,77,49,30.18,30.03,15,3,20,0.70
2014-5-17,82,75,66,64,59,55,77,59,44,30.20,30.13,19,6,22,0.20
2014-5-18,81,77,74,65,62,57,66,59,52,30.21,30.16,19,7,23,0.10
2014-5-19,82,78,75,66,63,59,68,60,52,30.24,30.16,20,8,23,0.30
2014-5-20,82,78,75,66,63,60,69,61,52,30.27,30.20,17,6,18,0.10
2014-5-21,82,78,74,65,62,59,67,59,49,30.27,30.20,16,6,18,0.00
2014-5-22,84,77,68,67,64,58,87,64,43,30.25,30.14,11,2,17,0.00
2014-5-23,91,80,70,70,67,63,87,66,42,30.19,30.10,12,3,14,0.00
2014-5-24,91,81,73,72,69,65,85,68,46,30.18,30.10,13,3,14,0.00
2014-5-25,87,81,74,73,70,67,88,72,54,30.22,30.11,13,3,13,0.00
2014-5-26,86,82,78,73,71,68,82,71,57,30.26,30.16,15,4,16,0.00
2014-5-27,85,80,78,73,71,66,80,73,63,30.23,30.13,14,5,16,0.00
2014-5-28,86,81,75,73,71,68,84,73,58,30.17,30.08,15,4,16,0.00
2014-5-29,81,79,78,73,72,71,81,79,72,30.12,30.05,9,3,10,0.00
2014-7-9,91,78,74,76,73,71,95,85,55,30.21,30.15,13,2,20,0.00